createdAt,value
2022-11-25T00:04:46.373Z,4.70
2022-11-25T00:07:21.053Z,6.50
2022-11-25T00:09:54.224Z,4.80
2022-11-25T00:12:31.728Z,7.50
2022-11-25T00:15:18.871Z,5.20
2022-11-25T00:18:00.695Z,7.00
2022-11-25T00:20:35.381Z,3.20
2022-11-25T00:23:07.410Z,4.80
2022-11-25T00:25:37.242Z,4.80
2022-11-25T00:28:10.228Z,4.80
2022-11-25T00:30:41.899Z,5.10
2022-11-25T00:33:17.576Z,6.10
2022-11-25T00:35:57.624Z,4.80
2022-11-25T00:41:16.896Z,4.50
2022-11-25T00:44:03.969Z,6.10
2022-11-25T00:46:32.729Z,4.90
2022-11-25T00:49:23.636Z,4.80
2022-11-25T00:54:50.057Z,4.70
2022-11-25T00:57:25.420Z,4.80
2022-11-25T01:00:10.354Z,4.70
2022-11-25T01:02:46.042Z,7.50
2022-11-25T01:07:54.563Z,4.70
2022-11-25T01:10:33.633Z,3.80
2022-11-25T01:13:08.466Z,3.50
2022-11-25T01:16:02.061Z,5.00
2022-11-25T01:18:38.431Z,5.90
2022-11-25T01:21:35.931Z,6.40
2022-11-25T01:24:28.225Z,4.80
2022-11-25T01:29:37.427Z,5.30
2022-11-25T01:32:25.686Z,4.60
2022-11-25T01:35:08.714Z,4.60
2022-11-25T01:40:28.102Z,2.90
2022-11-25T01:43:08.825Z,4.50
2022-11-25T01:45:42.360Z,4.60
2022-11-25T01:48:51.414Z,4.40
2022-11-25T01:51:26.433Z,4.30
2022-11-25T01:54:03.951Z,5.30
2022-11-25T01:56:56.366Z,3.50
2022-11-25T01:59:29.253Z,4.30
2022-11-25T02:02:09.610Z,4.20
2022-11-25T02:04:46.885Z,4.70
2022-11-25T02:10:33.239Z,4.40
2022-11-25T02:13:06.253Z,3.90
2022-11-25T02:15:42.897Z,4.10
2022-11-25T02:18:21.755Z,2.30
2022-11-25T02:20:57.362Z,4.00
2022-11-25T02:23:40.598Z,4.10
2022-11-25T02:26:13.612Z,4.50
2022-11-25T02:28:47.889Z,3.00
2022-11-25T02:31:24.829Z,4.90
2022-11-25T02:33:55.560Z,4.80
2022-11-25T02:36:28.486Z,3.90
2022-11-25T02:38:58.768Z,3.70
2022-11-25T02:41:48.586Z,4.20
2022-11-25T02:44:22.907Z,3.80
2022-11-25T02:49:27.049Z,3.90
2022-11-25T02:51:58.853Z,4.40
2022-11-25T02:54:32.906Z,3.90
2022-11-25T02:57:02.021Z,3.20
2022-11-25T02:59:33.085Z,3.90
2022-11-25T03:02:04.315Z,6.10
2022-11-25T03:09:39.778Z,3.40
2022-11-25T03:12:19.662Z,4.00
2022-11-25T03:14:48.429Z,4.00
2022-11-25T03:19:45.882Z,4.10
2022-11-25T03:24:51.662Z,4.10
2022-11-25T03:27:29.071Z,4.50
2022-11-25T03:32:36.658Z,4.20
2022-11-25T03:35:07.150Z,2.40
2022-11-25T03:37:39.730Z,4.20
2022-11-25T03:40:11.950Z,5.10
2022-11-25T03:42:42.843Z,4.30
2022-11-25T03:45:15.819Z,4.40
2022-11-25T03:47:51.197Z,7.20
2022-11-25T03:50:22.183Z,4.40
2022-11-25T03:52:54.755Z,5.50
2022-11-25T03:57:57.436Z,4.40
2022-11-25T04:00:26.852Z,4.30
2022-11-25T04:03:12.206Z,4.40
2022-11-25T04:05:46.287Z,4.40
2022-11-25T04:08:13.955Z,2.70
2022-11-25T04:10:55.359Z,4.60
2022-11-25T04:13:34.668Z,4.60
2022-11-25T04:16:29.034Z,3.50
2022-11-25T04:19:04.494Z,8.00
2022-11-25T04:24:28.742Z,4.50
2022-11-25T04:29:29.331Z,5.00
2022-11-25T04:32:06.799Z,4.50
2022-11-25T04:34:38.651Z,4.60
2022-11-25T04:37:08.986Z,4.60
2022-11-25T04:39:49.445Z,4.60
2022-11-25T04:42:32.826Z,4.90
2022-11-25T04:45:22.898Z,4.70
2022-11-25T04:48:02.792Z,4.70
2022-11-25T04:50:38.128Z,4.70
2022-11-25T04:55:44.192Z,4.70
2022-11-25T05:01:10.974Z,4.70
2022-11-25T05:03:48.762Z,4.70
2022-11-25T05:06:22.568Z,5.60
2022-11-25T05:08:59.263Z,4.70
2022-11-25T05:11:31.918Z,5.30
2022-11-25T05:16:36.605Z,6.10
2022-11-25T05:19:04.717Z,4.60
2022-11-25T05:24:03.934Z,4.10
2022-11-25T05:26:35.218Z,4.60
2022-11-25T05:29:05.016Z,4.20
2022-11-25T05:31:37.787Z,5.20
2022-11-25T05:34:12.144Z,4.50
2022-11-25T05:36:47.655Z,4.20
2022-11-25T05:39:18.365Z,4.40
2022-11-25T05:42:30.602Z,4.50
2022-11-25T05:47:42.776Z,4.70
2022-11-25T05:50:16.095Z,4.40
2022-11-25T05:53:08.649Z,4.40
2022-11-25T05:55:37.783Z,5.20
2022-11-25T05:58:15.493Z,5.40
2022-11-25T06:00:57.438Z,4.40
2022-11-25T06:03:29.530Z,4.20
2022-11-25T06:05:59.897Z,4.30
2022-11-25T06:08:33.513Z,4.30
2022-11-25T06:11:27.666Z,4.30
2022-11-25T06:14:03.420Z,6.20
2022-11-25T06:16:41.380Z,3.50
2022-11-25T06:19:51.677Z,5.90
2022-11-25T06:22:25.176Z,4.30
2022-11-25T06:25:09.532Z,5.30
2022-11-25T06:28:10.806Z,4.20
2022-11-25T06:30:32.952Z,3.20
2022-11-25T06:35:47.747Z,4.40
2022-11-25T06:38:19.470Z,4.10
2022-11-25T06:40:47.669Z,4.60
2022-11-25T06:43:16.449Z,5.00
2022-11-25T06:48:23.860Z,4.70
2022-11-25T06:51:02.753Z,3.90
2022-11-25T06:53:38.509Z,3.90
2022-11-25T06:56:24.521Z,3.90
2022-11-25T06:59:32.490Z,3.90
2022-11-25T07:02:08.199Z,4.00
2022-11-25T07:04:43.483Z,4.00
2022-11-25T07:07:12.308Z,3.80
2022-11-25T07:09:41.102Z,4.00
2022-11-25T07:12:09.726Z,4.10
2022-11-25T07:14:38.067Z,4.10
2022-11-25T07:17:10.468Z,2.90
2022-11-25T07:19:40.381Z,3.60
2022-11-25T07:22:07.707Z,4.60
2022-11-25T07:24:46.125Z,5.80
2022-11-25T07:27:13.505Z,4.30
2022-11-25T07:30:19.192Z,4.30
2022-11-25T07:32:37.719Z,4.60
2022-11-25T07:37:36.619Z,4.40
2022-11-25T07:40:04.517Z,4.30
2022-11-25T07:42:36.939Z,6.10
2022-11-25T07:45:05.175Z,4.40
2022-11-25T07:47:53.821Z,3.70
2022-11-25T07:50:26.251Z,4.60
2022-11-25T07:53:14.035Z,4.60
2022-11-25T07:55:46.266Z,4.20
2022-11-25T08:00:44.918Z,4.70
2022-11-25T08:03:18.592Z,4.80
2022-11-25T08:05:49.523Z,4.90
2022-11-25T08:08:43.114Z,3.70
2022-11-25T08:11:36.974Z,5.60
2022-11-25T08:14:11.441Z,5.00
2022-11-25T08:16:42.664Z,3.70
2022-11-25T08:19:20.580Z,5.20
2022-11-25T08:21:52.927Z,5.30
2022-11-25T08:24:23.169Z,4.80
2022-11-25T08:26:55.395Z,4.40
2022-11-25T08:29:22.878Z,5.70
2022-11-25T08:31:51.803Z,5.40
2022-11-25T08:34:24.039Z,6.00
2022-11-25T08:36:59.195Z,5.30
2022-11-25T08:39:54.156Z,6.10
2022-11-25T08:42:24.571Z,5.40
2022-11-25T08:44:56.189Z,6.40
2022-11-25T08:47:27.109Z,6.70
2022-11-25T08:49:55.385Z,5.70
2022-11-25T08:52:24.028Z,6.80
2022-11-25T08:54:54.763Z,5.50
2022-11-25T08:57:24.874Z,6.20
2022-11-25T08:59:52.469Z,6.80
2022-11-25T09:02:22.339Z,5.60
2022-11-25T09:04:51.707Z,5.70
2022-11-25T09:07:19.590Z,6.30
2022-11-25T09:09:47.726Z,5.70
2022-11-25T09:12:14.857Z,5.70
2022-11-25T09:14:42.245Z,5.70
2022-11-25T09:17:13.452Z,5.60
2022-11-25T09:19:40.519Z,5.40
2022-11-25T09:22:08.716Z,5.50
2022-11-25T09:24:36.552Z,6.60
2022-11-25T09:27:06.217Z,5.60
2022-11-25T09:29:33.999Z,5.50
2022-11-25T09:32:02.197Z,5.70
2022-11-25T09:34:31.747Z,5.90
2022-11-25T09:37:04.167Z,5.60
2022-11-25T09:39:32.585Z,5.70
2022-11-25T09:42:36.846Z,5.70
2022-11-25T09:45:39.651Z,5.00
2022-11-25T09:48:43.648Z,5.80
2022-11-25T09:51:34.774Z,5.80
2022-11-25T09:54:28.956Z,5.80
2022-11-25T09:57:19.771Z,5.90
2022-11-25T10:00:07.249Z,5.90
2022-11-25T10:02:45.480Z,6.00
2022-11-25T10:05:25.158Z,6.20
2022-11-25T10:08:01.506Z,7.00
2022-11-25T10:10:49.506Z,6.20
2022-11-25T10:13:36.329Z,1.70
2022-11-25T10:16:16.842Z,7.40
2022-11-25T10:19:00.513Z,1.50
2022-11-25T10:21:33.395Z,6.80
2022-11-25T10:24:05.838Z,6.30
2022-11-25T10:26:41.400Z,7.30
2022-11-25T10:29:29.064Z,6.90
2022-11-25T10:32:07.729Z,6.50
2022-11-25T10:34:40.187Z,6.70
2022-11-25T10:37:15.939Z,6.70
2022-11-25T10:39:42.899Z,6.70
2022-11-25T10:42:20.805Z,5.10
2022-11-25T10:45:00.722Z,6.60
2022-11-25T10:48:08.877Z,6.60
2022-11-25T10:50:55.371Z,6.50
2022-11-25T10:53:26.130Z,6.60
2022-11-25T10:56:04.045Z,5.50
2022-11-25T10:58:33.067Z,6.60
2022-11-25T11:01:25.532Z,7.20
2022-11-25T11:04:07.060Z,6.90
2022-11-25T11:06:43.250Z,6.50
2022-11-25T11:09:38.363Z,6.50
2022-11-25T11:12:24.560Z,5.70
2022-11-25T11:14:55.878Z,7.10
2022-11-25T11:17:36.752Z,7.60
2022-11-25T11:20:09.388Z,6.30
2022-11-25T11:22:58.421Z,6.40
2022-11-25T11:25:34.284Z,6.30
2022-11-25T11:28:02.485Z,6.30
2022-11-25T11:30:33.849Z,7.30
2022-11-25T11:33:07.464Z,6.50
2022-11-25T11:35:56.834Z,6.80
2022-11-25T11:38:56.652Z,6.20
2022-11-25T11:41:35.489Z,6.20
2022-11-25T11:44:21.251Z,6.20
2022-11-25T11:47:06.313Z,7.10
2022-11-25T11:50:35.672Z,6.10
2022-11-25T11:53:25.120Z,6.20
2022-11-25T11:56:34.977Z,6.10
2022-11-25T11:59:55.609Z,6.10
2022-11-25T12:02:53.433Z,6.10
2022-11-25T12:05:24.633Z,6.10
2022-11-25T12:08:14.205Z,6.10
2022-11-25T12:10:45.857Z,3.50
2022-11-25T12:13:40.285Z,3.90
2022-11-25T12:16:48.878Z,3.70
2022-11-25T12:19:49.150Z,4.80
2022-11-25T12:22:41.047Z,6.10
2022-11-25T12:27:57.299Z,6.10
2022-11-25T12:30:37.323Z,6.10
2022-11-25T12:33:37.072Z,6.10
2022-11-25T12:36:18.240Z,6.10
2022-11-25T12:39:50.123Z,6.00
2022-11-25T12:42:49.010Z,6.30
2022-11-25T12:59:18.828Z,6.40
2022-11-25T13:03:56.241Z,6.40
2022-11-25T13:07:19.563Z,6.70
2022-11-25T13:10:25.257Z,6.50
2022-11-25T13:13:01.649Z,6.60
2022-11-25T13:15:38.101Z,6.60
2022-11-25T13:18:21.367Z,6.60
2022-11-25T13:20:49.400Z,6.60
2022-11-25T13:23:19.338Z,6.60
2022-11-25T13:25:48.871Z,6.70
2022-11-25T13:28:30.941Z,6.70
2022-11-25T13:31:18.234Z,6.70
2022-11-25T13:33:45.223Z,6.70
2022-11-25T13:36:23.540Z,6.70
2022-11-25T13:38:50.273Z,6.70
2022-11-25T13:41:20.147Z,6.70
2022-11-25T13:44:07.114Z,6.70
2022-11-25T13:46:41.525Z,6.70
2022-11-25T13:49:31.202Z,6.80
2022-11-25T13:52:05.957Z,6.80
2022-11-25T13:54:59.781Z,6.80
2022-11-25T13:57:32.175Z,6.80
2022-11-25T14:00:05.985Z,6.90
2022-11-25T14:02:45.081Z,6.90
2022-11-25T14:05:37.139Z,6.90
2022-11-25T14:08:36.072Z,6.90
2022-11-25T14:11:34.607Z,7.60
2022-11-25T14:14:26.732Z,6.90
2022-11-25T14:17:24.525Z,8.80
2022-11-25T14:20:14.457Z,6.90
2022-11-25T14:22:59.992Z,6.90
2022-11-25T14:25:48.762Z,6.90
2022-11-25T14:28:21.642Z,6.90
2022-11-25T14:30:54.573Z,6.90
2022-11-25T14:33:31.494Z,6.90
2022-11-25T14:36:30.752Z,6.90
2022-11-25T14:39:04.509Z,6.90
2022-11-25T14:41:37.844Z,7.00
2022-11-25T14:44:18.454Z,6.90
2022-11-25T14:46:57.552Z,6.90
2022-11-25T14:49:55.752Z,7.00
2022-11-25T14:52:36.264Z,6.90
2022-11-25T14:55:07.238Z,7.00
2022-11-25T14:57:38.168Z,7.00
2022-11-25T15:00:11.707Z,7.00
2022-11-25T15:02:54.398Z,6.90
2022-11-25T15:05:41.061Z,7.00
2022-11-25T15:08:08.066Z,7.00
2022-11-25T15:10:43.944Z,7.00
2022-11-25T15:13:19.635Z,7.00
2022-11-25T15:15:47.011Z,7.00
2022-11-25T15:18:20.086Z,7.00
2022-11-25T15:21:06.729Z,7.00
2022-11-25T15:23:37.932Z,7.00
2022-11-25T15:26:19.622Z,7.00
2022-11-25T15:28:46.958Z,7.00
2022-11-25T15:31:19.777Z,7.00
2022-11-25T15:33:54.350Z,7.00
2022-11-25T15:36:23.819Z,7.00
2022-11-25T15:38:50.999Z,7.00
2022-11-25T15:41:26.047Z,7.00
2022-11-25T15:43:56.032Z,7.00
2022-11-25T15:46:24.400Z,7.00
2022-11-25T15:48:54.097Z,7.00
2022-11-25T15:51:41.835Z,7.00
2022-11-25T15:54:14.791Z,7.00
2022-11-25T15:56:49.948Z,7.10
2022-11-25T15:59:45.975Z,7.00
2022-11-25T16:02:31.734Z,7.00
2022-11-25T16:05:14.216Z,7.10
2022-11-25T16:08:14.783Z,7.00
2022-11-25T16:10:44.572Z,8.30
2022-11-25T16:13:24.029Z,8.30
2022-11-25T16:16:18.124Z,7.10
2022-11-25T16:19:09.397Z,6.70
2022-11-25T16:21:36.180Z,7.10
2022-11-25T16:24:06.129Z,7.10
2022-11-25T16:26:57.760Z,7.10
2022-11-25T16:29:59.196Z,7.10
2022-11-25T16:32:29.167Z,7.10
2022-11-25T16:34:57.466Z,7.10
2022-11-25T16:37:24.731Z,7.10
2022-11-25T16:39:51.658Z,7.10
2022-11-25T16:42:20.774Z,7.10
2022-11-25T16:44:50.043Z,7.10
2022-11-25T16:47:18.695Z,7.20
2022-11-25T16:49:46.662Z,7.10
2022-11-25T16:52:14.108Z,7.10
2022-11-25T16:54:41.762Z,7.10
2022-11-25T16:57:17.790Z,7.10
2022-11-25T16:59:45.671Z,7.10
2022-11-25T17:02:20.858Z,7.20
2022-11-25T17:04:48.601Z,7.10
2022-11-25T17:07:32.067Z,7.10
2022-11-25T17:10:00.254Z,7.10
2022-11-25T17:12:30.719Z,7.10
2022-11-25T17:14:59.829Z,7.10
2022-11-25T17:17:27.990Z,7.20
2022-11-25T17:19:55.263Z,7.10
2022-11-25T17:22:33.333Z,7.10
2022-11-25T17:25:03.033Z,7.20
2022-11-25T17:27:32.084Z,7.20
2022-11-25T17:30:01.501Z,7.20
2022-11-25T17:32:28.466Z,7.20
2022-11-25T17:34:55.447Z,7.20
2022-11-25T17:37:24.608Z,7.20
2022-11-25T17:39:53.444Z,7.20
2022-11-25T17:42:30.308Z,7.20
2022-11-25T17:44:57.442Z,7.30
2022-11-25T17:47:24.385Z,7.20
2022-11-25T17:49:51.936Z,7.20
2022-11-25T17:52:19.004Z,7.30
2022-11-25T17:54:45.993Z,7.20
2022-11-25T17:57:20.951Z,7.30
2022-11-25T17:59:48.471Z,7.30
2022-11-25T18:02:20.677Z,7.20
2022-11-25T18:04:48.487Z,7.20
2022-11-25T18:07:15.757Z,7.20
2022-11-25T18:09:44.394Z,9.00
2022-11-25T18:12:29.040Z,7.30
2022-11-25T18:14:56.506Z,8.30
2022-11-25T18:17:23.771Z,7.30
2022-11-25T18:19:55.063Z,7.30
2022-11-25T18:22:23.826Z,7.30
2022-11-25T18:24:51.502Z,7.30
2022-11-25T18:27:21.489Z,7.30
2022-11-25T18:29:48.685Z,7.30
2022-11-25T18:32:15.587Z,7.30
2022-11-25T18:34:42.756Z,7.30
2022-11-25T18:37:11.841Z,7.30
2022-11-25T18:39:39.242Z,7.40
2022-11-25T18:42:07.472Z,7.40
2022-11-25T18:44:43.536Z,7.40
2022-11-25T18:47:11.821Z,7.40
2022-11-25T18:49:39.095Z,7.40
2022-11-25T18:52:06.021Z,7.40
2022-11-25T18:54:33.089Z,7.40
2022-11-25T18:56:59.971Z,7.40
2022-11-25T18:59:36.010Z,7.40
2022-11-25T19:02:03.202Z,7.40
2022-11-25T19:04:30.360Z,7.50
2022-11-25T19:06:57.173Z,7.50
2022-11-25T19:09:24.047Z,7.50
2022-11-25T19:11:54.382Z,7.50
2022-11-25T19:14:32.493Z,7.50
2022-11-25T19:17:02.978Z,7.50
2022-11-25T19:19:30.170Z,7.50
2022-11-25T19:21:58.303Z,7.50
2022-11-25T19:24:25.092Z,7.50
2022-11-25T19:26:55.954Z,7.50
2022-11-25T19:29:41.488Z,7.50
2022-11-25T19:32:20.718Z,7.50
2022-11-25T19:34:54.726Z,7.50
2022-11-25T19:37:23.065Z,7.50
2022-11-25T19:39:51.544Z,7.50
2022-11-25T19:42:18.845Z,7.50
2022-11-25T19:44:47.142Z,7.50
2022-11-25T19:47:23.701Z,7.50
2022-11-25T19:49:53.526Z,7.50
2022-11-25T19:52:22.893Z,7.50
2022-11-25T19:54:49.954Z,7.50
2022-11-25T19:57:19.641Z,7.50
2022-11-25T19:59:46.951Z,7.50
2022-11-25T20:02:17.326Z,7.50
2022-11-25T20:04:47.415Z,7.50
2022-11-25T20:07:16.851Z,7.50
2022-11-25T20:09:43.968Z,7.40
2022-11-25T20:12:23.443Z,8.60
2022-11-25T20:14:51.024Z,7.80
2022-11-25T20:17:28.662Z,7.50
2022-11-25T20:19:59.705Z,7.50
2022-11-25T20:22:30.889Z,7.50
2022-11-25T20:25:00.268Z,7.50
2022-11-25T20:27:28.229Z,7.50
2022-11-25T20:29:55.814Z,7.50
2022-11-25T20:32:26.370Z,7.40
2022-11-25T20:34:53.934Z,7.50
2022-11-25T20:37:24.020Z,7.40
2022-11-25T20:40:01.487Z,7.40
2022-11-25T20:42:28.444Z,7.40
2022-11-25T20:44:57.982Z,7.40
2022-11-25T20:47:26.189Z,7.40
2022-11-25T20:49:53.949Z,7.30
2022-11-25T20:52:28.148Z,7.30
2022-11-25T20:54:55.119Z,7.30
2022-11-25T20:57:21.927Z,7.30
2022-11-25T20:59:49.165Z,7.30
2022-11-25T21:02:17.141Z,7.30
2022-11-25T21:04:45.816Z,7.40
2022-11-25T21:07:17.872Z,7.20
2022-11-25T21:09:45.423Z,6.70
2022-11-25T21:12:19.081Z,8.40
2022-11-25T21:14:49.740Z,7.20
2022-11-25T21:17:21.415Z,7.20
2022-11-25T21:32:31.026Z,7.40
2022-11-25T21:35:15.024Z,8.00
2022-11-25T21:41:29.140Z,7.30
2022-11-25T21:44:15.403Z,7.30
2022-11-25T21:47:19.210Z,7.90
2022-11-25T21:50:41.358Z,7.40
2022-11-25T21:53:22.441Z,7.40
2022-11-25T21:56:24.344Z,8.20
2022-11-25T21:59:02.103Z,7.00
2022-11-25T22:01:38.592Z,7.60
2022-11-25T22:04:33.641Z,8.10
2022-11-25T22:07:40.393Z,7.50
2022-11-25T22:17:41.023Z,7.90
2022-11-25T22:20:37.639Z,3.90
2022-11-25T22:23:36.670Z,7.80
2022-11-25T22:26:36.468Z,8.60
2022-11-25T22:29:52.978Z,7.60
2022-11-25T22:32:33.042Z,7.70
2022-11-25T22:35:52.243Z,7.70
2022-11-25T22:39:27.651Z,7.60
2022-11-25T22:42:55.187Z,6.40
2022-11-25T22:46:48.822Z,8.10
2022-11-25T22:50:01.539Z,7.40
2022-11-25T23:00:54.700Z,7.20
2022-11-25T23:04:04.431Z,7.30
2022-11-25T23:07:01.821Z,7.10
2022-11-25T23:09:47.602Z,7.20
2022-11-25T23:12:50.743Z,7.00
2022-11-25T23:15:59.589Z,5.20
2022-11-25T23:18:51.184Z,7.20
2022-11-25T23:21:39.942Z,6.90
2022-11-25T23:25:18.305Z,8.10
2022-11-25T23:28:16.652Z,6.40
2022-11-25T23:31:10.377Z,7.10
2022-11-25T23:33:53.523Z,6.70
2022-11-25T23:36:57.252Z,6.50
2022-11-25T23:43:21.459Z,6.60
2022-11-25T23:46:05.266Z,6.70
2022-11-25T23:49:01.545Z,8.10
2022-11-25T23:52:21.662Z,6.60
2022-11-25T23:55:17.833Z,6.60
2022-11-25T23:58:11.337Z,6.00
